Dumas, Arkansas
Current Conditions -  °F | °C
As of 6:53 PM on Monday 26 Jan 2015 (Local Time) from KLLQ Reporting Station
Clear Clear  
Wind Chill: 52°   Ceiling: Unl
Heat Index: 52°   Visibility: 10mi
Dew Point: 33°   Wind: 6mph
Humidity: 49%   Direction: 240°WSW
Pressure: 30.01"   Gusts: NA
Location:  33.89°N, 91.49°W
Report Text: KLLQ 270053Z AUTO 24005KT 10SM CLR 11/01 A3001 RMK AO2 SLP161 T01110006
Loading
Personal Weather Stations






























Interactive Weather Map New forecast layout! Learn more

10-Day Weather Forecast

Advertisements
Track Severe Weather on mobile